sensor_id;sensor_type;location;lat;lon;timestamp;temperature;humidity
10312;DHT22;5201;48.776;9.128;2023-03-03T00:01:02;4.00;99.90
10312;DHT22;5201;48.776;9.128;2023-03-03T00:03:27;3.90;99.90
10312;DHT22;5201;48.776;9.128;2023-03-03T00:05:53;3.90;99.90
10312;DHT22;5201;48.776;9.128;2023-03-03T00:08:19;3.90;99.90
10312;DHT22;5201;48.776;9.128;2023-03-03T00:10:45;3.70;99.90
10312;DHT22;5201;48.776;9.128;2023-03-03T00:13:15;3.70;99.90
10312;DHT22;5201;48.776;9.128;2023-03-03T00:15:41;3.70;99.90
10312;DHT22;5201;48.776;9.128;2023-03-03T00:18:30;3.80;99.90
10312;DHT22;5201;48.776;9.128;2023-03-03T00:20:59;3.70;99.90
10312;DHT22;5201;48.776;9.128;2023-03-03T00:23:35;3.70;99.90
10312;DHT22;5201;48.776;9.128;2023-03-03T00:26:03;3.80;99.90
10312;DHT22;5201;48.776;9.128;2023-03-03T00:28:48;4.20;99.90
10312;DHT22;5201;48.776;9.128;2023-03-03T00:31:17;3.60;99.90
10312;DHT22;5201;48.776;9.128;2023-03-03T00:33:49;3.70;99.90
10312;DHT22;5201;48.776;9.128;2023-03-03T00:36:38;3.60;99.90
10312;DHT22;5201;48.776;9.128;2023-03-03T00:39:21;3.60;99.90
10312;DHT22;5201;48.776;9.128;2023-03-03T00:41:50;3.60;99.90
10312;DHT22;5201;48.776;9.128;2023-03-03T00:44:47;3.60;99.90
10312;DHT22;5201;48.776;9.128;2023-03-03T00:47:30;3.70;99.90
10312;DHT22;5201;48.776;9.128;2023-03-03T00:52:59;3.60;99.90
10312;DHT22;5201;48.776;9.128;2023-03-03T00:55:25;3.60;99.90
10312;DHT22;5201;48.776;9.128;2023-03-03T00:57:51;3.50;99.90
10312;DHT22;5201;48.776;9.128;2023-03-03T01:00:17;3.50;99.90
10312;DHT22;5201;48.776;9.128;2023-03-03T01:02:43;3.40;99.90
10312;DHT22;5201;48.776;9.128;2023-03-03T01:05:13;3.40;99.90
10312;DHT22;5201;48.776;9.128;2023-03-03T01:07:39;3.50;99.90
10312;DHT22;5201;48.776;9.128;2023-03-03T01:10:04;3.50;99.90
10312;DHT22;5201;48.776;9.128;2023-03-03T01:12:30;3.40;99.90
10312;DHT22;5201;48.776;9.128;2023-03-03T01:14:56;3.40;99.90
10312;DHT22;5201;48.776;9.128;2023-03-03T01:17:22;3.30;99.90
10312;DHT22;5201;48.776;9.128;2023-03-03T01:19:47;3.30;99.90
10312;DHT22;5201;48.776;9.128;2023-03-03T01:22:13;3.20;99.90
10312;DHT22;5201;48.776;9.128;2023-03-03T01:24:39;3.30;99.90
10312;DHT22;5201;48.776;9.128;2023-03-03T01:27:04;3.30;99.90
10312;DHT22;5201;48.776;9.128;2023-03-03T01:29:30;3.40;99.90
10312;DHT22;5201;48.776;9.128;2023-03-03T01:31:56;3.30;99.90
10312;DHT22;5201;48.776;9.128;2023-03-03T01:34:21;3.30;99.90
10312;DHT22;5201;48.776;9.128;2023-03-03T01:36:47;3.30;99.90
10312;DHT22;5201;48.776;9.128;2023-03-03T01:39:12;3.30;99.90
10312;DHT22;5201;48.776;9.128;2023-03-03T01:41:38;3.30;99.90
10312;DHT22;5201;48.776;9.128;2023-03-03T01:44:04;3.30;99.90
10312;DHT22;5201;48.776;9.128;2023-03-03T01:46:40;3.20;99.90
10312;DHT22;5201;48.776;9.128;2023-03-03T01:49:15;3.30;99.90
10312;DHT22;5201;48.776;9.128;2023-03-03T01:51:59;3.20;99.90
10312;DHT22;5201;48.776;9.128;2023-03-03T01:54:41;3.30;99.90
10312;DHT22;5201;48.776;9.128;2023-03-03T01:57:13;3.30;99.90
10312;DHT22;5201;48.776;9.128;2023-03-03T01:59:45;3.30;99.90
10312;DHT22;5201;48.776;9.128;2023-03-03T02:02:12;3.30;99.90
10312;DHT22;5201;48.776;9.128;2023-03-03T02:04:38;3.30;99.90
10312;DHT22;5201;48.776;9.128;2023-03-03T02:07:06;3.20;99.90
10312;DHT22;5201;48.776;9.128;2023-03-03T02:12:18;3.20;99.90
10312;DHT22;5201;48.776;9.128;2023-03-03T02:14:44;3.20;99.90
10312;DHT22;5201;48.776;9.128;2023-03-03T02:17:10;3.30;99.90
10312;DHT22;5201;48.776;9.128;2023-03-03T02:20:13;3.30;99.90
10312;DHT22;5201;48.776;9.128;2023-03-03T02:22:48;3.40;99.90
10312;DHT22;5201;48.776;9.128;2023-03-03T02:25:26;3.50;99.90
10312;DHT22;5201;48.776;9.128;2023-03-03T02:27:54;3.50;99.90
10312;DHT22;5201;48.776;9.128;2023-03-03T02:30:24;3.40;99.90
10312;DHT22;5201;48.776;9.128;2023-03-03T02:32:49;3.30;99.90
10312;DHT22;5201;48.776;9.128;2023-03-03T02:35:31;3.20;99.90
10312;DHT22;5201;48.776;9.128;2023-03-03T02:40:59;3.20;99.90
10312;DHT22;5201;48.776;9.128;2023-03-03T02:43:54;3.20;99.90
10312;DHT22;5201;48.776;9.128;2023-03-03T02:46:17;3.20;99.90
10312;DHT22;5201;48.776;9.128;2023-03-03T02:48:43;3.30;99.90
10312;DHT22;5201;48.776;9.128;2023-03-03T02:51:09;3.30;99.90
10312;DHT22;5201;48.776;9.128;2023-03-03T02:53:35;3.40;99.90
10312;DHT22;5201;48.776;9.128;2023-03-03T02:56:00;3.40;99.90
10312;DHT22;5201;48.776;9.128;2023-03-03T02:58:26;3.50;99.90
10312;DHT22;5201;48.776;9.128;2023-03-03T03:00:51;3.50;99.90
10312;DHT22;5201;48.776;9.128;2023-03-03T03:03:17;3.60;99.90
10312;DHT22;5201;48.776;9.128;2023-03-03T03:05:42;3.70;99.90
10312;DHT22;5201;48.776;9.128;2023-03-03T03:08:08;3.70;99.90
10312;DHT22;5201;48.776;9.128;2023-03-03T03:10:34;3.80;99.90
10312;DHT22;5201;48.776;9.128;2023-03-03T03:13:00;3.80;99.90
10312;DHT22;5201;48.776;9.128;2023-03-03T03:15:26;3.90;99.90
10312;DHT22;5201;48.776;9.128;2023-03-03T03:17:51;4.00;99.90
10312;DHT22;5201;48.776;9.128;2023-03-03T03:20:17;4.10;99.90
10312;DHT22;5201;48.776;9.128;2023-03-03T03:22:43;4.10;99.90
10312;DHT22;5201;48.776;9.128;2023-03-03T03:25:08;4.10;99.90
10312;DHT22;5201;48.776;9.128;2023-03-03T03:27:34;4.20;99.90
10312;DHT22;5201;48.776;9.128;2023-03-03T03:29:59;4.20;99.90
10312;DHT22;5201;48.776;9.128;2023-03-03T03:32:25;4.20;99.90
10312;DHT22;5201;48.776;9.128;2023-03-03T03:34:51;4.20;99.90
10312;DHT22;5201;48.776;9.128;2023-03-03T03:37:16;4.10;99.90
10312;DHT22;5201;48.776;9.128;2023-03-03T03:39:42;4.20;99.90
10312;DHT22;5201;48.776;9.128;2023-03-03T03:42:07;4.20;99.90
10312;DHT22;5201;48.776;9.128;2023-03-03T03:44:34;4.20;99.90
10312;DHT22;5201;48.776;9.128;2023-03-03T03:46:59;4.10;99.90
10312;DHT22;5201;48.776;9.128;2023-03-03T03:49:25;4.10;99.90
10312;DHT22;5201;48.776;9.128;2023-03-03T03:51:50;3.90;99.90
10312;DHT22;5201;48.776;9.128;2023-03-03T03:54:16;3.90;99.90
10312;DHT22;5201;48.776;9.128;2023-03-03T03:56:41;3.80;99.90
10312;DHT22;5201;48.776;9.128;2023-03-03T03:59:07;3.60;99.90
10312;DHT22;5201;48.776;9.128;2023-03-03T04:01:33;3.80;99.90
10312;DHT22;5201;48.776;9.128;2023-03-03T04:03:58;3.70;99.90
10312;DHT22;5201;48.776;9.128;2023-03-03T04:06:24;3.60;99.90
10312;DHT22;5201;48.776;9.128;2023-03-03T04:08:50;3.60;99.90
10312;DHT22;5201;48.776;9.128;2023-03-03T04:11:15;3.70;99.90
10312;DHT22;5201;48.776;9.128;2023-03-03T04:13:41;3.70;99.90
10312;DHT22;5201;48.776;9.128;2023-03-03T04:16:07;3.80;99.90
10312;DHT22;5201;48.776;9.128;2023-03-03T04:18:33;3.80;99.90
10312;DHT22;5201;48.776;9.128;2023-03-03T04:20:59;3.80;99.90
10312;DHT22;5201;48.776;9.128;2023-03-03T04:23:24;4.00;99.90
10312;DHT22;5201;48.776;9.128;2023-03-03T04:25:50;4.00;99.90
10312;DHT22;5201;48.776;9.128;2023-03-03T04:28:16;4.10;99.90
10312;DHT22;5201;48.776;9.128;2023-03-03T04:30:42;4.10;99.90
10312;DHT22;5201;48.776;9.128;2023-03-03T04:33:08;4.10;99.90
10312;DHT22;5201;48.776;9.128;2023-03-03T04:35:34;4.00;99.90
10312;DHT22;5201;48.776;9.128;2023-03-03T04:37:59;4.40;99.90
10312;DHT22;5201;48.776;9.128;2023-03-03T04:40:25;4.10;99.90
10312;DHT22;5201;48.776;9.128;2023-03-03T04:42:51;4.20;99.90
10312;DHT22;5201;48.776;9.128;2023-03-03T04:45:16;4.30;99.90
10312;DHT22;5201;48.776;9.128;2023-03-03T04:47:42;4.20;99.90
10312;DHT22;5201;48.776;9.128;2023-03-03T04:50:09;4.30;99.90
10312;DHT22;5201;48.776;9.128;2023-03-03T04:52:35;4.30;99.90
10312;DHT22;5201;48.776;9.128;2023-03-03T04:55:01;4.20;99.90
10312;DHT22;5201;48.776;9.128;2023-03-03T04:57:26;3.90;99.90
10312;DHT22;5201;48.776;9.128;2023-03-03T04:59:52;3.10;99.90
10312;DHT22;5201;48.776;9.128;2023-03-03T05:02:18;3.40;99.90
10312;DHT22;5201;48.776;9.128;2023-03-03T05:04:44;3.40;99.90
10312;DHT22;5201;48.776;9.128;2023-03-03T05:07:09;3.30;99.90
10312;DHT22;5201;48.776;9.128;2023-03-03T05:09:35;3.40;99.90
10312;DHT22;5201;48.776;9.128;2023-03-03T05:12:01;3.50;99.90
10312;DHT22;5201;48.776;9.128;2023-03-03T05:14:26;3.40;99.90
10312;DHT22;5201;48.776;9.128;2023-03-03T05:16:52;3.40;99.90
10312;DHT22;5201;48.776;9.128;2023-03-03T05:19:18;3.40;99.90
10312;DHT22;5201;48.776;9.128;2023-03-03T05:21:44;3.60;99.90
10312;DHT22;5201;48.776;9.128;2023-03-03T05:24:13;3.80;99.90
10312;DHT22;5201;48.776;9.128;2023-03-03T05:26:39;4.00;99.90
10312;DHT22;5201;48.776;9.128;2023-03-03T05:29:06;4.00;99.90
10312;DHT22;5201;48.776;9.128;2023-03-03T05:31:32;4.00;99.90
10312;DHT22;5201;48.776;9.128;2023-03-03T05:33:57;3.90;99.90
10312;DHT22;5201;48.776;9.128;2023-03-03T05:36:23;4.00;99.90
10312;DHT22;5201;48.776;9.128;2023-03-03T05:38:49;4.20;99.90
10312;DHT22;5201;48.776;9.128;2023-03-03T05:41:15;3.50;99.90
10312;DHT22;5201;48.776;9.128;2023-03-03T05:43:41;3.60;99.90
10312;DHT22;5201;48.776;9.128;2023-03-03T05:46:07;3.50;99.90
10312;DHT22;5201;48.776;9.128;2023-03-03T05:48:32;3.60;99.90
10312;DHT22;5201;48.776;9.128;2023-03-03T05:50:59;3.60;99.90
10312;DHT22;5201;48.776;9.128;2023-03-03T05:53:26;3.40;99.90
10312;DHT22;5201;48.776;9.128;2023-03-03T05:55:51;3.60;99.90
10312;DHT22;5201;48.776;9.128;2023-03-03T05:58:17;3.70;99.90
10312;DHT22;5201;48.776;9.128;2023-03-03T06:00:42;3.70;99.90
10312;DHT22;5201;48.776;9.128;2023-03-03T06:03:08;3.60;99.90
10312;DHT22;5201;48.776;9.128;2023-03-03T06:05:34;3.70;99.90
10312;DHT22;5201;48.776;9.128;2023-03-03T06:07:59;3.80;99.90
10312;DHT22;5201;48.776;9.128;2023-03-03T06:10:25;3.50;99.90
10312;DHT22;5201;48.776;9.128;2023-03-03T06:12:51;3.50;99.90
10312;DHT22;5201;48.776;9.128;2023-03-03T06:15:17;3.60;99.90
10312;DHT22;5201;48.776;9.128;2023-03-03T06:17:42;3.70;99.90
10312;DHT22;5201;48.776;9.128;2023-03-03T06:20:08;3.60;99.90
10312;DHT22;5201;48.776;9.128;2023-03-03T06:22:34;3.70;99.90
10312;DHT22;5201;48.776;9.128;2023-03-03T06:25:00;3.70;99.90
10312;DHT22;5201;48.776;9.128;2023-03-03T06:27:25;3.70;99.90
10312;DHT22;5201;48.776;9.128;2023-03-03T06:29:51;3.50;99.90
10312;DHT22;5201;48.776;9.128;2023-03-03T06:32:17;3.50;99.90
10312;DHT22;5201;48.776;9.128;2023-03-03T06:34:42;3.50;99.90
10312;DHT22;5201;48.776;9.128;2023-03-03T06:37:08;3.70;99.90
10312;DHT22;5201;48.776;9.128;2023-03-03T06:39:33;3.60;99.90
10312;DHT22;5201;48.776;9.128;2023-03-03T06:41:59;3.60;99.90
10312;DHT22;5201;48.776;9.128;2023-03-03T06:44:25;3.40;99.90
10312;DHT22;5201;48.776;9.128;2023-03-03T06:46:50;3.40;99.90
10312;DHT22;5201;48.776;9.128;2023-03-03T06:49:16;3.60;99.90
10312;DHT22;5201;48.776;9.128;2023-03-03T06:51:42;3.40;99.90
10312;DHT22;5201;48.776;9.128;2023-03-03T06:54:18;3.30;99.90
10312;DHT22;5201;48.776;9.128;2023-03-03T06:56:45;3.30;99.90
10312;DHT22;5201;48.776;9.128;2023-03-03T06:59:19;3.40;99.90
10312;DHT22;5201;48.776;9.128;2023-03-03T07:01:46;3.30;99.90
10312;DHT22;5201;48.776;9.128;2023-03-03T07:04:21;3.60;99.90
10312;DHT22;5201;48.776;9.128;2023-03-03T07:06:49;3.80;99.90
10312;DHT22;5201;48.776;9.128;2023-03-03T07:09:24;3.70;99.90
10312;DHT22;5201;48.776;9.128;2023-03-03T07:12:01;3.70;99.90
10312;DHT22;5201;48.776;9.128;2023-03-03T07:14:30;3.50;99.90
10312;DHT22;5201;48.776;9.128;2023-03-03T07:16:58;3.30;99.90
10312;DHT22;5201;48.776;9.128;2023-03-03T07:19:33;3.50;99.90
10312;DHT22;5201;48.776;9.128;2023-03-03T07:22:21;3.70;99.90
10312;DHT22;5201;48.776;9.128;2023-03-03T07:24:51;3.90;99.90
10312;DHT22;5201;48.776;9.128;2023-03-03T07:27:28;4.10;99.90
10312;DHT22;5201;48.776;9.128;2023-03-03T07:30:17;4.20;99.90
10312;DHT22;5201;48.776;9.128;2023-03-03T07:32:46;4.30;99.90
10312;DHT22;5201;48.776;9.128;2023-03-03T07:35:43;4.40;99.90
10312;DHT22;5201;48.776;9.128;2023-03-03T07:38:30;4.50;99.90
10312;DHT22;5201;48.776;9.128;2023-03-03T07:41:00;4.60;99.90
10312;DHT22;5201;48.776;9.128;2023-03-03T07:43:40;4.70;99.90
10312;DHT22;5201;48.776;9.128;2023-03-03T07:46:16;4.70;99.90
10312;DHT22;5201;48.776;9.128;2023-03-03T07:48:45;4.80;99.90
10312;DHT22;5201;48.776;9.128;2023-03-03T07:51:25;4.80;99.90
10312;DHT22;5201;48.776;9.128;2023-03-03T07:54:00;4.70;99.90
10312;DHT22;5201;48.776;9.128;2023-03-03T07:56:35;4.90;99.90
10312;DHT22;5201;48.776;9.128;2023-03-03T07:59:21;5.00;99.90
10312;DHT22;5201;48.776;9.128;2023-03-03T08:01:53;5.10;99.90
10312;DHT22;5201;48.776;9.128;2023-03-03T08:04:50;5.00;99.90
10312;DHT22;5201;48.776;9.128;2023-03-03T08:07:18;4.90;99.90
10312;DHT22;5201;48.776;9.128;2023-03-03T08:14:44;5.00;99.90
10312;DHT22;5201;48.776;9.128;2023-03-03T08:17:19;5.10;99.90
10312;DHT22;5201;48.776;9.128;2023-03-03T08:19:45;5.30;99.90
10312;DHT22;5201;48.776;9.128;2023-03-03T08:22:16;5.40;99.90
10312;DHT22;5201;48.776;9.128;2023-03-03T08:24:42;5.30;99.90
10312;DHT22;5201;48.776;9.128;2023-03-03T08:27:08;5.10;99.90
10312;DHT22;5201;48.776;9.128;2023-03-03T08:29:34;5.10;99.90
10312;DHT22;5201;48.776;9.128;2023-03-03T08:31:59;5.10;99.90
10312;DHT22;5201;48.776;9.128;2023-03-03T08:34:25;5.90;99.90
10312;DHT22;5201;48.776;9.128;2023-03-03T08:36:50;6.80;99.90
10312;DHT22;5201;48.776;9.128;2023-03-03T08:39:16;7.30;99.90
10312;DHT22;5201;48.776;9.128;2023-03-03T08:41:42;7.50;99.90
10312;DHT22;5201;48.776;9.128;2023-03-03T08:44:09;7.80;99.90
10312;DHT22;5201;48.776;9.128;2023-03-03T08:46:35;8.00;99.90
10312;DHT22;5201;48.776;9.128;2023-03-03T08:49:02;8.60;99.70
10312;DHT22;5201;48.776;9.128;2023-03-03T08:51:27;8.80;99.10
10312;DHT22;5201;48.776;9.128;2023-03-03T08:53:53;8.80;98.60
10312;DHT22;5201;48.776;9.128;2023-03-03T08:56:19;8.30;98.20
10312;DHT22;5201;48.776;9.128;2023-03-03T08:58:44;9.20;98.90
10312;DHT22;5201;48.776;9.128;2023-03-03T09:01:13;9.60;97.50
10312;DHT22;5201;48.776;9.128;2023-03-03T09:03:41;10.00;96.80
10312;DHT22;5201;48.776;9.128;2023-03-03T09:06:06;10.50;96.20
10312;DHT22;5201;48.776;9.128;2023-03-03T09:08:32;9.60;97.10
10312;DHT22;5201;48.776;9.128;2023-03-03T09:10:57;9.60;97.70
10312;DHT22;5201;48.776;9.128;2023-03-03T09:13:23;10.30;96.40
10312;DHT22;5201;48.776;9.128;2023-03-03T09:15:49;10.70;95.50
10312;DHT22;5201;48.776;9.128;2023-03-03T09:18:40;11.10;95.50
10312;DHT22;5201;48.776;9.128;2023-03-03T09:21:34;11.00;95.20
10312;DHT22;5201;48.776;9.128;2023-03-03T09:24:00;11.70;95.30
10312;DHT22;5201;48.776;9.128;2023-03-03T09:26:45;10.80;95.10
10312;DHT22;5201;48.776;9.128;2023-03-03T09:34:40;10.60;95.50
10312;DHT22;5201;48.776;9.128;2023-03-03T09:37:21;10.60;95.70
10312;DHT22;5201;48.776;9.128;2023-03-03T09:39:52;10.40;95.50
10312;DHT22;5201;48.776;9.128;2023-03-03T09:56:14;10.90;95.50
10312;DHT22;5201;48.776;9.128;2023-03-03T10:01:42;10.50;95.40
10312;DHT22;5201;48.776;9.128;2023-03-03T10:12:34;10.60;95.50
10312;DHT22;5201;48.776;9.128;2023-03-03T10:18:43;11.00;95.50
10312;DHT22;5201;48.776;9.128;2023-03-03T10:21:01;11.10;95.50
10312;DHT22;5201;48.776;9.128;2023-03-03T10:35:00;10.50;95.80
10312;DHT22;5201;48.776;9.128;2023-03-03T10:37:59;10.30;95.80
10312;DHT22;5201;48.776;9.128;2023-03-03T10:46:03;10.00;96.00
10312;DHT22;5201;48.776;9.128;2023-03-03T10:51:33;9.50;97.40
10312;DHT22;5201;48.776;9.128;2023-03-03T10:54:21;10.20;96.50
10312;DHT22;5201;48.776;9.128;2023-03-03T10:59:58;10.50;96.10
10312;DHT22;5201;48.776;9.128;2023-03-03T11:02:45;10.60;96.00
10312;DHT22;5201;48.776;9.128;2023-03-03T11:05:31;10.60;95.90
10312;DHT22;5201;48.776;9.128;2023-03-03T11:08:02;10.10;96.30
10312;DHT22;5201;48.776;9.128;2023-03-03T11:10:46;10.10;96.80
10312;DHT22;5201;48.776;9.128;2023-03-03T11:19:18;9.60;98.20
10312;DHT22;5201;48.776;9.128;2023-03-03T11:26:58;9.40;97.60
10312;DHT22;5201;48.776;9.128;2023-03-03T11:32:35;9.10;98.30
10312;DHT22;5201;48.776;9.128;2023-03-03T11:35:24;8.90;98.60
10312;DHT22;5201;48.776;9.128;2023-03-03T11:41:02;8.80;98.40
10312;DHT22;5201;48.776;9.128;2023-03-03T11:43:40;8.60;98.70
10312;DHT22;5201;48.776;9.128;2023-03-03T11:46:21;8.20;99.10
10312;DHT22;5201;48.776;9.128;2023-03-03T11:48:58;8.50;99.10
10312;DHT22;5201;48.776;9.128;2023-03-03T11:54:45;9.20;99.00
10312;DHT22;5201;48.776;9.128;2023-03-03T11:59:52;9.20;98.60
10312;DHT22;5201;48.776;9.128;2023-03-03T12:08:02;8.90;98.80
10312;DHT22;5201;48.776;9.128;2023-03-03T12:13:10;8.90;98.40
10312;DHT22;5201;48.776;9.128;2023-03-03T12:15:55;8.60;98.60
10312;DHT22;5201;48.776;9.128;2023-03-03T12:23:52;8.50;98.60
10312;DHT22;5201;48.776;9.128;2023-03-03T12:26:50;8.50;98.40
10312;DHT22;5201;48.776;9.128;2023-03-03T12:32:27;8.10;98.50
10312;DHT22;5201;48.776;9.128;2023-03-03T12:35:03;8.50;98.50
10312;DHT22;5201;48.776;9.128;2023-03-03T12:40:18;8.60;98.50
10312;DHT22;5201;48.776;9.128;2023-03-03T12:45:39;8.50;98.30
10312;DHT22;5201;48.776;9.128;2023-03-03T12:48:18;8.70;98.90
10312;DHT22;5201;48.776;9.128;2023-03-03T12:53:33;9.00;98.20
10312;DHT22;5201;48.776;9.128;2023-03-03T12:56:15;8.90;98.30
10312;DHT22;5201;48.776;9.128;2023-03-03T13:15:23;8.70;98.30
10312;DHT22;5201;48.776;9.128;2023-03-03T13:23:46;8.60;98.50
10312;DHT22;5201;48.776;9.128;2023-03-03T13:26:37;10.80;99.40
10312;DHT22;5201;48.776;9.128;2023-03-03T13:29:18;8.40;98.90
10312;DHT22;5201;48.776;9.128;2023-03-03T13:32:23;8.70;98.80
10312;DHT22;5201;48.776;9.128;2023-03-03T13:40:04;8.30;98.80
10312;DHT22;5201;48.776;9.128;2023-03-03T13:45:06;8.80;98.50
10312;DHT22;5201;48.776;9.128;2023-03-03T13:47:49;8.80;98.50
10312;DHT22;5201;48.776;9.128;2023-03-03T13:50:40;8.80;98.40
10312;DHT22;5201;48.776;9.128;2023-03-03T13:56:05;8.50;98.90
10312;DHT22;5201;48.776;9.128;2023-03-03T13:58:52;8.60;98.90
10312;DHT22;5201;48.776;9.128;2023-03-03T14:04:30;8.70;98.80
10312;DHT22;5201;48.776;9.128;2023-03-03T14:07:11;8.80;98.60
10312;DHT22;5201;48.776;9.128;2023-03-03T14:12:25;8.80;98.60
10312;DHT22;5201;48.776;9.128;2023-03-03T14:15:05;8.60;98.50
10312;DHT22;5201;48.776;9.128;2023-03-03T14:20:23;8.60;98.60
10312;DHT22;5201;48.776;9.128;2023-03-03T14:23:50;8.80;98.40
10312;DHT22;5201;48.776;9.128;2023-03-03T14:26:00;8.90;98.40
10312;DHT22;5201;48.776;9.128;2023-03-03T14:28:44;8.80;98.60
10312;DHT22;5201;48.776;9.128;2023-03-03T14:31:22;8.90;98.60
10312;DHT22;5201;48.776;9.128;2023-03-03T14:34:00;8.80;98.30
10312;DHT22;5201;48.776;9.128;2023-03-03T14:36:31;8.80;98.50
10312;DHT22;5201;48.776;9.128;2023-03-03T14:38:57;8.70;98.70
10312;DHT22;5201;48.776;9.128;2023-03-03T14:41:40;8.60;98.90
10312;DHT22;5201;48.776;9.128;2023-03-03T14:44:52;9.10;99.30
10312;DHT22;5201;48.776;9.128;2023-03-03T14:47:23;8.70;98.60
10312;DHT22;5201;48.776;9.128;2023-03-03T14:49:49;8.80;98.70
10312;DHT22;5201;48.776;9.128;2023-03-03T14:54:43;8.60;98.90
10312;DHT22;5201;48.776;9.128;2023-03-03T15:05:21;8.70;98.90
10312;DHT22;5201;48.776;9.128;2023-03-03T15:08:06;8.80;99.00
10312;DHT22;5201;48.776;9.128;2023-03-03T15:10:37;9.40;99.30
10312;DHT22;5201;48.776;9.128;2023-03-03T15:13:33;8.90;98.80
10312;DHT22;5201;48.776;9.128;2023-03-03T15:18:26;8.80;98.90
10312;DHT22;5201;48.776;9.128;2023-03-03T15:29:03;8.60;99.10
10312;DHT22;5201;48.776;9.128;2023-03-03T15:38:03;8.50;99.20
10312;DHT22;5201;48.776;9.128;2023-03-03T15:40:36;9.50;99.70
10312;DHT22;5201;48.776;9.128;2023-03-03T15:43:34;8.50;99.40
10312;DHT22;5201;48.776;9.128;2023-03-03T15:57:55;8.40;99.60
10312;DHT22;5201;48.776;9.128;2023-03-03T16:03:25;8.50;99.70
10312;DHT22;5201;48.776;9.128;2023-03-03T16:06:04;8.40;99.70
10312;DHT22;5201;48.776;9.128;2023-03-03T16:08:53;8.40;99.50
10312;DHT22;5201;48.776;9.128;2023-03-03T16:14:39;8.60;99.40
10312;DHT22;5201;48.776;9.128;2023-03-03T16:20:17;8.50;99.50
10312;DHT22;5201;48.776;9.128;2023-03-03T16:23:13;8.40;99.70
10312;DHT22;5201;48.776;9.128;2023-03-03T16:28:36;8.40;99.60
10312;DHT22;5201;48.776;9.128;2023-03-03T16:31:21;8.90;99.90
10312;DHT22;5201;48.776;9.128;2023-03-03T16:42:29;8.10;99.90
10312;DHT22;5201;48.776;9.128;2023-03-03T16:58:55;8.10;99.90
10312;DHT22;5201;48.776;9.128;2023-03-03T17:01:46;8.10;99.90
10312;DHT22;5201;48.776;9.128;2023-03-03T17:04:34;8.00;99.90
10312;DHT22;5201;48.776;9.128;2023-03-03T17:07:25;8.00;99.90
10312;DHT22;5201;48.776;9.128;2023-03-03T17:15:35;7.90;99.90
10312;DHT22;5201;48.776;9.128;2023-03-03T17:21:02;7.70;99.90
10312;DHT22;5201;48.776;9.128;2023-03-03T17:24:07;7.70;99.90
10312;DHT22;5201;48.776;9.128;2023-03-03T17:41:37;7.40;99.90
10312;DHT22;5201;48.776;9.128;2023-03-03T17:46:57;7.40;99.90
10312;DHT22;5201;48.776;9.128;2023-03-03T17:54:55;7.20;99.90
10312;DHT22;5201;48.776;9.128;2023-03-03T17:57:44;7.20;99.90
10312;DHT22;5201;48.776;9.128;2023-03-03T18:01:15;7.20;99.90
10312;DHT22;5201;48.776;9.128;2023-03-03T18:12:09;7.00;99.90
10312;DHT22;5201;48.776;9.128;2023-03-03T18:14:51;7.00;99.90
10312;DHT22;5201;48.776;9.128;2023-03-03T18:20:23;6.90;99.90
10312;DHT22;5201;48.776;9.128;2023-03-03T18:22:52;6.90;99.90
10312;DHT22;5201;48.776;9.128;2023-03-03T18:25:55;6.90;99.90
10312;DHT22;5201;48.776;9.128;2023-03-03T18:28:23;7.10;99.90
10312;DHT22;5201;48.776;9.128;2023-03-03T18:31:00;6.90;99.90
10312;DHT22;5201;48.776;9.128;2023-03-03T18:38:55;6.80;99.90
10312;DHT22;5201;48.776;9.128;2023-03-03T18:41:29;6.80;99.90
10312;DHT22;5201;48.776;9.128;2023-03-03T18:44:01;6.80;99.90
10312;DHT22;5201;48.776;9.128;2023-03-03T18:46:48;6.80;99.90
10312;DHT22;5201;48.776;9.128;2023-03-03T18:49:15;6.70;99.90
10312;DHT22;5201;48.776;9.128;2023-03-03T19:04:34;6.60;99.90
10312;DHT22;5201;48.776;9.128;2023-03-03T19:07:14;6.60;99.90
10312;DHT22;5201;48.776;9.128;2023-03-03T19:10:01;6.60;99.90
10312;DHT22;5201;48.776;9.128;2023-03-03T19:12:47;6.50;99.90
10312;DHT22;5201;48.776;9.128;2023-03-03T19:18:02;6.40;99.90
10312;DHT22;5201;48.776;9.128;2023-03-03T19:20:43;6.40;99.90
10312;DHT22;5201;48.776;9.128;2023-03-03T19:23:18;6.50;99.90
10312;DHT22;5201;48.776;9.128;2023-03-03T19:25:45;6.40;99.90
10312;DHT22;5201;48.776;9.128;2023-03-03T19:31:01;6.30;99.90
10312;DHT22;5201;48.776;9.128;2023-03-03T19:36:20;6.20;99.90
10312;DHT22;5201;48.776;9.128;2023-03-03T19:53:14;6.00;99.90
10312;DHT22;5201;48.776;9.128;2023-03-03T20:13:08;6.00;99.90
10312;DHT22;5201;48.776;9.128;2023-03-03T20:15:39;6.00;99.90
10312;DHT22;5201;48.776;9.128;2023-03-03T20:18:29;6.00;99.90
10312;DHT22;5201;48.776;9.128;2023-03-03T20:24:23;5.80;99.90
10312;DHT22;5201;48.776;9.128;2023-03-03T20:27:05;5.80;99.90
10312;DHT22;5201;48.776;9.128;2023-03-03T20:35:40;5.80;99.90
10312;DHT22;5201;48.776;9.128;2023-03-03T20:38:28;5.80;99.90
10312;DHT22;5201;48.776;9.128;2023-03-03T20:41:55;5.80;99.90
10312;DHT22;5201;48.776;9.128;2023-03-03T20:44:08;5.80;99.90
10312;DHT22;5201;48.776;9.128;2023-03-03T20:46:47;5.90;99.90
10312;DHT22;5201;48.776;9.128;2023-03-03T20:52:06;5.80;99.90
10312;DHT22;5201;48.776;9.128;2023-03-03T20:54:48;5.80;99.90
10312;DHT22;5201;48.776;9.128;2023-03-03T21:00:32;5.90;99.90
10312;DHT22;5201;48.776;9.128;2023-03-03T21:03:26;5.80;99.90
10312;DHT22;5201;48.776;9.128;2023-03-03T21:05:58;5.80;99.90
10312;DHT22;5201;48.776;9.128;2023-03-03T21:14:42;5.70;99.90
10312;DHT22;5201;48.776;9.128;2023-03-03T21:17:23;5.60;99.90
10312;DHT22;5201;48.776;9.128;2023-03-03T21:19:49;5.50;99.90
10312;DHT22;5201;48.776;9.128;2023-03-03T21:22:14;5.50;99.90
10312;DHT22;5201;48.776;9.128;2023-03-03T21:24:52;6.20;99.90
10312;DHT22;5201;48.776;9.128;2023-03-03T21:27:33;5.40;99.90
10312;DHT22;5201;48.776;9.128;2023-03-03T21:30:19;5.40;99.90
10312;DHT22;5201;48.776;9.128;2023-03-03T21:32:47;5.50;99.90
10312;DHT22;5201;48.776;9.128;2023-03-03T21:35:19;5.40;99.90
10312;DHT22;5201;48.776;9.128;2023-03-03T21:37:51;5.40;99.90
10312;DHT22;5201;48.776;9.128;2023-03-03T21:40:26;5.50;99.90
10312;DHT22;5201;48.776;9.128;2023-03-03T21:42:54;5.50;99.90
10312;DHT22;5201;48.776;9.128;2023-03-03T21:45:20;5.50;99.90
10312;DHT22;5201;48.776;9.128;2023-03-03T21:47:48;5.40;99.90
10312;DHT22;5201;48.776;9.128;2023-03-03T21:50:15;5.40;99.90
10312;DHT22;5201;48.776;9.128;2023-03-03T21:52:40;5.40;99.90
10312;DHT22;5201;48.776;9.128;2023-03-03T21:55:07;5.30;99.90
10312;DHT22;5201;48.776;9.128;2023-03-03T21:57:33;5.40;99.90
10312;DHT22;5201;48.776;9.128;2023-03-03T22:00:00;5.40;99.90
10312;DHT22;5201;48.776;9.128;2023-03-03T22:02:26;5.40;99.90
10312;DHT22;5201;48.776;9.128;2023-03-03T22:04:51;5.30;99.90
10312;DHT22;5201;48.776;9.128;2023-03-03T22:07:17;5.20;99.90
10312;DHT22;5201;48.776;9.128;2023-03-03T22:09:43;5.20;99.90
10312;DHT22;5201;48.776;9.128;2023-03-03T22:12:08;5.50;99.90
10312;DHT22;5201;48.776;9.128;2023-03-03T22:14:34;5.00;99.90
10312;DHT22;5201;48.776;9.128;2023-03-03T22:16:59;4.90;99.90
10312;DHT22;5201;48.776;9.128;2023-03-03T22:19:25;4.90;99.90
10312;DHT22;5201;48.776;9.128;2023-03-03T22:21:51;5.00;99.90
10312;DHT22;5201;48.776;9.128;2023-03-03T22:24:17;5.00;99.90
10312;DHT22;5201;48.776;9.128;2023-03-03T22:26:43;4.90;99.90
10312;DHT22;5201;48.776;9.128;2023-03-03T22:29:08;4.90;99.90